sensor_id;sensor_type;location;lat;lon;timestamp;P1;durP1;ratioP1;P2;durP2;ratioP2
27025;SDS011;14565;48.626;8.978;2022-09-03T00:01:47;3.40;;;1.83;;
27025;SDS011;14565;48.626;8.978;2022-09-03T00:04:21;3.78;;;2.00;;
27025;SDS011;14565;48.626;8.978;2022-09-03T00:07:00;3.83;;;2.10;;
27025;SDS011;14565;48.626;8.978;2022-09-03T00:09:42;2.58;;;1.90;;
27025;SDS011;14565;48.626;8.978;2022-09-03T00:54:56;4.00;;;2.25;;
27025;SDS011;14565;48.626;8.978;2022-09-03T01:00:36;1.95;;;1.67;;
27025;SDS011;14565;48.626;8.978;2022-09-03T01:03:10;3.72;;;1.90;;
27025;SDS011;14565;48.626;8.978;2022-09-03T01:11:08;2.83;;;1.90;;
27025;SDS011;14565;48.626;8.978;2022-09-03T01:13:59;2.63;;;1.90;;
27025;SDS011;14565;48.626;8.978;2022-09-03T01:16:54;2.78;;;1.77;;
27025;SDS011;14565;48.626;8.978;2022-09-03T01:22:35;2.47;;;1.50;;
27025;SDS011;14565;48.626;8.978;2022-09-03T01:38:59;2.90;;;1.45;;
27025;SDS011;14565;48.626;8.978;2022-09-03T01:42:06;4.05;;;1.42;;
27025;SDS011;14565;48.626;8.978;2022-09-03T01:56:30;3.70;;;2.00;;
27025;SDS011;14565;48.626;8.978;2022-09-03T02:01:46;4.25;;;1.88;;
27025;SDS011;14565;48.626;8.978;2022-09-03T02:04:24;2.05;;;1.80;;
27025;SDS011;14565;48.626;8.978;2022-09-03T02:06:51;2.25;;;1.52;;
27025;SDS011;14565;48.626;8.978;2022-09-03T02:09:18;1.50;;;1.33;;
27025;SDS011;14565;48.626;8.978;2022-09-03T02:11:45;3.50;;;1.80;;
27025;SDS011;14565;48.626;8.978;2022-09-03T02:14:18;2.00;;;1.80;;
27025;SDS011;14565;48.626;8.978;2022-09-03T02:16:44;5.25;;;1.30;;
27025;SDS011;14565;48.626;8.978;2022-09-03T02:19:12;2.72;;;1.60;;
27025;SDS011;14565;48.626;8.978;2022-09-03T02:21:46;2.80;;;1.50;;
27025;SDS011;14565;48.626;8.978;2022-09-03T02:24:16;2.60;;;1.70;;
27025;SDS011;14565;48.626;8.978;2022-09-03T02:26:42;4.60;;;1.77;;
27025;SDS011;14565;48.626;8.978;2022-09-03T02:29:08;3.28;;;1.45;;
27025;SDS011;14565;48.626;8.978;2022-09-03T02:31:34;3.60;;;1.50;;
27025;SDS011;14565;48.626;8.978;2022-09-03T02:34:00;4.75;;;2.10;;
27025;SDS011;14565;48.626;8.978;2022-09-03T02:36:31;2.58;;;1.70;;
27025;SDS011;14565;48.626;8.978;2022-09-03T02:39:02;3.10;;;1.92;;
27025;SDS011;14565;48.626;8.978;2022-09-03T02:41:29;3.65;;;1.85;;
27025;SDS011;14565;48.626;8.978;2022-09-03T02:49:11;3.60;;;2.10;;
27025;SDS011;14565;48.626;8.978;2022-09-03T02:51:38;4.63;;;2.10;;
27025;SDS011;14565;48.626;8.978;2022-09-03T02:54:06;4.18;;;2.45;;
27025;SDS011;14565;48.626;8.978;2022-09-03T02:56:32;7.35;;;2.63;;
27025;SDS011;14565;48.626;8.978;2022-09-03T02:58:58;3.78;;;2.30;;
27025;SDS011;14565;48.626;8.978;2022-09-03T03:01:24;5.03;;;2.65;;
27025;SDS011;14565;48.626;8.978;2022-09-03T03:03:50;3.47;;;2.70;;
27025;SDS011;14565;48.626;8.978;2022-09-03T03:06:16;3.90;;;2.53;;
27025;SDS011;14565;48.626;8.978;2022-09-03T03:08:45;3.03;;;2.55;;
27025;SDS011;14565;48.626;8.978;2022-09-03T03:11:11;5.22;;;2.92;;
27025;SDS011;14565;48.626;8.978;2022-09-03T03:13:43;3.85;;;2.80;;
27025;SDS011;14565;48.626;8.978;2022-09-03T03:16:10;3.30;;;2.70;;
27025;SDS011;14565;48.626;8.978;2022-09-03T03:18:36;5.18;;;2.60;;
27025;SDS011;14565;48.626;8.978;2022-09-03T03:21:05;3.05;;;2.75;;
27025;SDS011;14565;48.626;8.978;2022-09-03T03:23:36;4.55;;;2.72;;
27025;SDS011;14565;48.626;8.978;2022-09-03T03:29:26;5.30;;;3.17;;
27025;SDS011;14565;48.626;8.978;2022-09-03T03:31:56;6.03;;;3.80;;
27025;SDS011;14565;48.626;8.978;2022-09-03T03:34:27;5.30;;;3.58;;
27025;SDS011;14565;48.626;8.978;2022-09-03T03:37:01;5.43;;;3.90;;
27025;SDS011;14565;48.626;8.978;2022-09-03T03:39:34;5.75;;;3.15;;
27025;SDS011;14565;48.626;8.978;2022-09-03T03:42:13;7.97;;;3.50;;
27025;SDS011;14565;48.626;8.978;2022-09-03T03:44:45;3.60;;;3.22;;
27025;SDS011;14565;48.626;8.978;2022-09-03T03:50:35;5.28;;;3.42;;
27025;SDS011;14565;48.626;8.978;2022-09-03T03:53:18;4.95;;;3.30;;
27025;SDS011;14565;48.626;8.978;2022-09-03T03:55:54;3.92;;;3.50;;
27025;SDS011;14565;48.626;8.978;2022-09-03T03:58:29;4.60;;;2.80;;
27025;SDS011;14565;48.626;8.978;2022-09-03T04:03:55;3.65;;;3.33;;
27025;SDS011;14565;48.626;8.978;2022-09-03T04:06:22;5.20;;;3.22;;
27025;SDS011;14565;48.626;8.978;2022-09-03T04:08:53;3.25;;;2.95;;
27025;SDS011;14565;48.626;8.978;2022-09-03T04:11:20;6.65;;;3.38;;
27025;SDS011;14565;48.626;8.978;2022-09-03T04:13:58;4.55;;;3.28;;
27025;SDS011;14565;48.626;8.978;2022-09-03T04:17:09;5.28;;;3.40;;
27025;SDS011;14565;48.626;8.978;2022-09-03T04:23:07;4.20;;;3.50;;
27025;SDS011;14565;48.626;8.978;2022-09-03T04:26:04;5.38;;;3.60;;
27025;SDS011;14565;48.626;8.978;2022-09-03T04:29:02;4.07;;;3.65;;
27025;SDS011;14565;48.626;8.978;2022-09-03T04:32:05;4.07;;;3.67;;
27025;SDS011;14565;48.626;8.978;2022-09-03T04:38:42;6.68;;;3.88;;
27025;SDS011;14565;48.626;8.978;2022-09-03T04:41:18;4.60;;;3.60;;
27025;SDS011;14565;48.626;8.978;2022-09-03T04:53:05;4.00;;;3.50;;
27025;SDS011;14565;48.626;8.978;2022-09-03T04:55:37;3.92;;;3.50;;
27025;SDS011;14565;48.626;8.978;2022-09-03T04:58:03;8.25;;;3.75;;
27025;SDS011;14565;48.626;8.978;2022-09-03T05:00:29;5.13;;;3.67;;
27025;SDS011;14565;48.626;8.978;2022-09-03T05:02:55;4.47;;;3.45;;
27025;SDS011;14565;48.626;8.978;2022-09-03T05:05:24;5.70;;;3.88;;
27025;SDS011;14565;48.626;8.978;2022-09-03T05:07:57;6.47;;;3.92;;
27025;SDS011;14565;48.626;8.978;2022-09-03T05:10:26;4.82;;;3.65;;
27025;SDS011;14565;48.626;8.978;2022-09-03T05:15:25;4.57;;;3.63;;
27025;SDS011;14565;48.626;8.978;2022-09-03T05:17:55;5.93;;;3.47;;
27025;SDS011;14565;48.626;8.978;2022-09-03T05:20:26;4.70;;;3.80;;
27025;SDS011;14565;48.626;8.978;2022-09-03T05:22:54;6.90;;;3.65;;
27025;SDS011;14565;48.626;8.978;2022-09-03T05:25:20;4.97;;;3.90;;
27025;SDS011;14565;48.626;8.978;2022-09-03T05:27:46;4.60;;;3.83;;
27025;SDS011;14565;48.626;8.978;2022-09-03T05:30:13;5.47;;;3.97;;
27025;SDS011;14565;48.626;8.978;2022-09-03T05:32:43;5.72;;;4.40;;
27025;SDS011;14565;48.626;8.978;2022-09-03T05:35:09;5.68;;;4.10;;
27025;SDS011;14565;48.626;8.978;2022-09-03T05:37:35;7.72;;;4.10;;
27025;SDS011;14565;48.626;8.978;2022-09-03T05:40:01;6.05;;;3.92;;
27025;SDS011;14565;48.626;8.978;2022-09-03T05:42:28;5.43;;;4.20;;
27025;SDS011;14565;48.626;8.978;2022-09-03T05:47:22;5.22;;;4.18;;
27025;SDS011;14565;48.626;8.978;2022-09-03T05:49:48;6.07;;;3.90;;
27025;SDS011;14565;48.626;8.978;2022-09-03T05:52:13;4.65;;;4.13;;
27025;SDS011;14565;48.626;8.978;2022-09-03T05:54:39;4.47;;;3.85;;
27025;SDS011;14565;48.626;8.978;2022-09-03T05:57:05;4.85;;;4.30;;
27025;SDS011;14565;48.626;8.978;2022-09-03T05:59:31;5.25;;;3.80;;
27025;SDS011;14565;48.626;8.978;2022-09-03T06:01:57;6.57;;;3.90;;
27025;SDS011;14565;48.626;8.978;2022-09-03T06:04:22;4.35;;;3.83;;
27025;SDS011;14565;48.626;8.978;2022-09-03T06:06:48;8.65;;;3.90;;
27025;SDS011;14565;48.626;8.978;2022-09-03T06:09:20;4.50;;;3.47;;
27025;SDS011;14565;48.626;8.978;2022-09-03T06:11:46;5.22;;;4.18;;
27025;SDS011;14565;48.626;8.978;2022-09-03T06:14:13;4.38;;;3.70;;
27025;SDS011;14565;48.626;8.978;2022-09-03T06:16:44;6.85;;;4.13;;
27025;SDS011;14565;48.626;8.978;2022-09-03T06:19:13;4.60;;;3.90;;
27025;SDS011;14565;48.626;8.978;2022-09-03T06:21:40;3.65;;;3.33;;
27025;SDS011;14565;48.626;8.978;2022-09-03T06:24:08;6.13;;;3.85;;
27025;SDS011;14565;48.626;8.978;2022-09-03T06:26:42;7.50;;;3.55;;
27025;SDS011;14565;48.626;8.978;2022-09-03T06:29:08;4.25;;;3.45;;
27025;SDS011;14565;48.626;8.978;2022-09-03T06:31:34;5.93;;;3.60;;
27025;SDS011;14565;48.626;8.978;2022-09-03T06:34:00;5.95;;;3.17;;
27025;SDS011;14565;48.626;8.978;2022-09-03T06:36:27;5.20;;;3.58;;
27025;SDS011;14565;48.626;8.978;2022-09-03T06:38:53;5.75;;;3.20;;
27025;SDS011;14565;48.626;8.978;2022-09-03T06:41:21;4.97;;;3.08;;
27025;SDS011;14565;48.626;8.978;2022-09-03T06:43:52;5.70;;;3.35;;
27025;SDS011;14565;48.626;8.978;2022-09-03T06:46:21;3.58;;;3.28;;
27025;SDS011;14565;48.626;8.978;2022-09-03T06:48:47;8.45;;;3.90;;
27025;SDS011;14565;48.626;8.978;2022-09-03T06:51:18;6.45;;;3.45;;
27025;SDS011;14565;48.626;8.978;2022-09-03T06:53:47;3.85;;;3.45;;
27025;SDS011;14565;48.626;8.978;2022-09-03T06:56:15;3.50;;;3.08;;
27025;SDS011;14565;48.626;8.978;2022-09-03T06:58:44;3.85;;;3.40;;
27025;SDS011;14565;48.626;8.978;2022-09-03T07:04:20;3.60;;;2.88;;
27025;SDS011;14565;48.626;8.978;2022-09-03T07:06:48;4.90;;;3.63;;
27025;SDS011;14565;48.626;8.978;2022-09-03T07:09:14;4.03;;;3.20;;
27025;SDS011;14565;48.626;8.978;2022-09-03T07:11:42;4.15;;;3.25;;
27025;SDS011;14565;48.626;8.978;2022-09-03T07:14:14;3.88;;;2.90;;
27025;SDS011;14565;48.626;8.978;2022-09-03T07:16:41;3.75;;;2.88;;
27025;SDS011;14565;48.626;8.978;2022-09-03T07:19:07;3.20;;;2.92;;
27025;SDS011;14565;48.626;8.978;2022-09-03T07:21:34;3.28;;;2.80;;
27025;SDS011;14565;48.626;8.978;2022-09-03T07:24:03;4.20;;;2.65;;
27025;SDS011;14565;48.626;8.978;2022-09-03T07:26:30;4.50;;;3.20;;
27025;SDS011;14565;48.626;8.978;2022-09-03T07:29:10;4.90;;;3.08;;
27025;SDS011;14565;48.626;8.978;2022-09-03T07:31:37;4.70;;;2.75;;
27025;SDS011;14565;48.626;8.978;2022-09-03T07:34:05;3.80;;;2.78;;
27025;SDS011;14565;48.626;8.978;2022-09-03T07:36:36;4.38;;;2.70;;
27025;SDS011;14565;48.626;8.978;2022-09-03T07:39:05;2.97;;;2.65;;
27025;SDS011;14565;48.626;8.978;2022-09-03T07:41:31;3.13;;;2.60;;
27025;SDS011;14565;48.626;8.978;2022-09-03T07:43:57;3.28;;;2.40;;
27025;SDS011;14565;48.626;8.978;2022-09-03T07:46:29;4.95;;;2.92;;
27025;SDS011;14565;48.626;8.978;2022-09-03T07:48:57;5.45;;;2.58;;
27025;SDS011;14565;48.626;8.978;2022-09-03T07:51:27;2.60;;;2.30;;
27025;SDS011;14565;48.626;8.978;2022-09-03T07:53:55;3.03;;;2.38;;
27025;SDS011;14565;48.626;8.978;2022-09-03T07:56:22;3.30;;;2.38;;
27025;SDS011;14565;48.626;8.978;2022-09-03T07:58:49;2.95;;;2.40;;
27025;SDS011;14565;48.626;8.978;2022-09-03T08:01:19;3.53;;;2.60;;
27025;SDS011;14565;48.626;8.978;2022-09-03T08:03:47;2.55;;;2.30;;
27025;SDS011;14565;48.626;8.978;2022-09-03T08:06:14;2.60;;;2.40;;
27025;SDS011;14565;48.626;8.978;2022-09-03T08:08:42;2.55;;;2.10;;
27025;SDS011;14565;48.626;8.978;2022-09-03T08:11:12;4.20;;;2.58;;
27025;SDS011;14565;48.626;8.978;2022-09-03T08:13:40;3.53;;;2.25;;
27025;SDS011;14565;48.626;8.978;2022-09-03T08:16:08;4.60;;;2.42;;
27025;SDS011;14565;48.626;8.978;2022-09-03T08:18:37;2.97;;;2.10;;
27025;SDS011;14565;48.626;8.978;2022-09-03T08:21:04;3.45;;;2.30;;
27025;SDS011;14565;48.626;8.978;2022-09-03T08:26:00;3.38;;;2.30;;
27025;SDS011;14565;48.626;8.978;2022-09-03T08:28:27;2.60;;;2.40;;
27025;SDS011;14565;48.626;8.978;2022-09-03T08:30:53;3.38;;;2.40;;
27025;SDS011;14565;48.626;8.978;2022-09-03T08:33:19;2.45;;;2.25;;
27025;SDS011;14565;48.626;8.978;2022-09-03T08:36:04;3.65;;;2.40;;
27025;SDS011;14565;48.626;8.978;2022-09-03T08:38:32;3.88;;;2.45;;
27025;SDS011;14565;48.626;8.978;2022-09-03T08:41:26;4.10;;;2.20;;
27025;SDS011;14565;48.626;8.978;2022-09-03T08:43:59;3.03;;;2.53;;
27025;SDS011;14565;48.626;8.978;2022-09-03T08:49:26;3.13;;;2.28;;
27025;SDS011;14565;48.626;8.978;2022-09-03T08:52:03;5.10;;;2.53;;
27025;SDS011;14565;48.626;8.978;2022-09-03T08:54:38;4.50;;;2.72;;
27025;SDS011;14565;48.626;8.978;2022-09-03T08:57:04;2.53;;;2.20;;
27025;SDS011;14565;48.626;8.978;2022-09-03T08:59:32;3.03;;;2.20;;
27025;SDS011;14565;48.626;8.978;2022-09-03T09:02:04;3.78;;;2.53;;
27025;SDS011;14565;48.626;8.978;2022-09-03T09:07:28;3.03;;;2.60;;
27025;SDS011;14565;48.626;8.978;2022-09-03T09:10:09;3.67;;;2.63;;
27025;SDS011;14565;48.626;8.978;2022-09-03T09:24:26;3.15;;;2.85;;
27025;SDS011;14565;48.626;8.978;2022-09-03T09:29:52;2.70;;;2.45;;
27025;SDS011;14565;48.626;8.978;2022-09-03T09:32:21;3.67;;;2.80;;
27025;SDS011;14565;48.626;8.978;2022-09-03T09:34:47;2.50;;;2.30;;
27025;SDS011;14565;48.626;8.978;2022-09-03T09:37:14;5.03;;;2.60;;
27025;SDS011;14565;48.626;8.978;2022-09-03T09:39:52;3.33;;;2.20;;
27025;SDS011;14565;48.626;8.978;2022-09-03T09:42:20;3.65;;;2.30;;
27025;SDS011;14565;48.626;8.978;2022-09-03T09:44:46;2.88;;;2.50;;
27025;SDS011;14565;48.626;8.978;2022-09-03T09:47:29;2.97;;;2.58;;
27025;SDS011;14565;48.626;8.978;2022-09-03T09:52:27;7.95;;;2.63;;
27025;SDS011;14565;48.626;8.978;2022-09-03T09:55:08;2.65;;;2.28;;
27025;SDS011;14565;48.626;8.978;2022-09-03T09:57:39;5.35;;;2.85;;
27025;SDS011;14565;48.626;8.978;2022-09-03T10:00:06;2.60;;;2.33;;
27025;SDS011;14565;48.626;8.978;2022-09-03T10:02:35;3.05;;;2.55;;
27025;SDS011;14565;48.626;8.978;2022-09-03T10:05:18;3.97;;;2.22;;
27025;SDS011;14565;48.626;8.978;2022-09-03T10:07:54;3.33;;;2.20;;
27025;SDS011;14565;48.626;8.978;2022-09-03T10:10:20;7.40;;;2.42;;
27025;SDS011;14565;48.626;8.978;2022-09-03T10:12:48;3.42;;;2.40;;
27025;SDS011;14565;48.626;8.978;2022-09-03T10:15:34;3.35;;;2.30;;
27025;SDS011;14565;48.626;8.978;2022-09-03T10:18:14;2.53;;;2.00;;
27025;SDS011;14565;48.626;8.978;2022-09-03T10:21:12;3.47;;;2.53;;
27025;SDS011;14565;48.626;8.978;2022-09-03T10:26:41;5.78;;;2.72;;
27025;SDS011;14565;48.626;8.978;2022-09-03T10:29:11;2.65;;;2.45;;
27025;SDS011;14565;48.626;8.978;2022-09-03T10:37:37;2.88;;;2.67;;
27025;SDS011;14565;48.626;8.978;2022-09-03T10:40:37;4.68;;;2.65;;
27025;SDS011;14565;48.626;8.978;2022-09-03T10:46:09;4.25;;;2.72;;
27025;SDS011;14565;48.626;8.978;2022-09-03T10:51:40;3.33;;;2.58;;
27025;SDS011;14565;48.626;8.978;2022-09-03T10:59:50;3.05;;;2.28;;
27025;SDS011;14565;48.626;8.978;2022-09-03T11:04:57;3.60;;;2.80;;
27025;SDS011;14565;48.626;8.978;2022-09-03T11:07:51;3.00;;;2.63;;
27025;SDS011;14565;48.626;8.978;2022-09-03T11:10:31;3.15;;;2.30;;
27025;SDS011;14565;48.626;8.978;2022-09-03T11:18:32;2.80;;;2.53;;
27025;SDS011;14565;48.626;8.978;2022-09-03T11:21:12;3.25;;;2.53;;
27025;SDS011;14565;48.626;8.978;2022-09-03T11:23:40;3.63;;;2.60;;
27025;SDS011;14565;48.626;8.978;2022-09-03T11:26:12;8.10;;;2.70;;
27025;SDS011;14565;48.626;8.978;2022-09-03T11:34:00;10.98;;;4.85;;
27025;SDS011;14565;48.626;8.978;2022-09-03T11:41:56;6.65;;;5.03;;
27025;SDS011;14565;48.626;8.978;2022-09-03T11:44:23;10.27;;;5.10;;
27025;SDS011;14565;48.626;8.978;2022-09-03T11:46:52;6.82;;;5.28;;
27025;SDS011;14565;48.626;8.978;2022-09-03T11:49:29;6.78;;;5.45;;
27025;SDS011;14565;48.626;8.978;2022-09-03T11:52:01;7.00;;;2.92;;
27025;SDS011;14565;48.626;8.978;2022-09-03T11:54:31;5.60;;;2.67;;
27025;SDS011;14565;48.626;8.978;2022-09-03T12:00:12;7.93;;;2.97;;
27025;SDS011;14565;48.626;8.978;2022-09-03T12:02:46;5.75;;;2.42;;
27025;SDS011;14565;48.626;8.978;2022-09-03T12:13:23;7.18;;;2.20;;
27025;SDS011;14565;48.626;8.978;2022-09-03T12:19:00;5.32;;;1.60;;
27025;SDS011;14565;48.626;8.978;2022-09-03T12:21:39;3.67;;;1.48;;
27025;SDS011;14565;48.626;8.978;2022-09-03T12:24:05;3.47;;;1.70;;
27025;SDS011;14565;48.626;8.978;2022-09-03T12:26:40;2.83;;;1.70;;
27025;SDS011;14565;48.626;8.978;2022-09-03T12:29:19;4.43;;;1.40;;
27025;SDS011;14565;48.626;8.978;2022-09-03T12:31:50;2.90;;;1.38;;
27025;SDS011;14565;48.626;8.978;2022-09-03T12:34:19;2.63;;;1.75;;
27025;SDS011;14565;48.626;8.978;2022-09-03T12:36:46;3.13;;;1.80;;
27025;SDS011;14565;48.626;8.978;2022-09-03T12:44:40;3.33;;;2.22;;
27025;SDS011;14565;48.626;8.978;2022-09-03T12:49:43;2.25;;;1.73;;
27025;SDS011;14565;48.626;8.978;2022-09-03T12:52:22;2.95;;;2.15;;
27025;SDS011;14565;48.626;8.978;2022-09-03T12:58:33;2.80;;;1.80;;
27025;SDS011;14565;48.626;8.978;2022-09-03T13:01:07;4.20;;;1.80;;
27025;SDS011;14565;48.626;8.978;2022-09-03T13:03:46;3.42;;;2.10;;
27025;SDS011;14565;48.626;8.978;2022-09-03T13:06:22;3.88;;;1.95;;
27025;SDS011;14565;48.626;8.978;2022-09-03T13:08:51;4.30;;;1.80;;
27025;SDS011;14565;48.626;8.978;2022-09-03T13:11:22;4.45;;;1.60;;
27025;SDS011;14565;48.626;8.978;2022-09-03T13:14:11;2.38;;;1.50;;
27025;SDS011;14565;48.626;8.978;2022-09-03T13:19:12;2.05;;;1.40;;
27025;SDS011;14565;48.626;8.978;2022-09-03T13:21:50;3.80;;;1.48;;
27025;SDS011;14565;48.626;8.978;2022-09-03T13:24:26;3.17;;;1.20;;
27025;SDS011;14565;48.626;8.978;2022-09-03T13:37:56;3.33;;;1.60;;
27025;SDS011;14565;48.626;8.978;2022-09-03T13:40:44;2.40;;;1.38;;
27025;SDS011;14565;48.626;8.978;2022-09-03T13:43:30;2.85;;;1.70;;
27025;SDS011;14565;48.626;8.978;2022-09-03T13:46:07;4.97;;;1.75;;
27025;SDS011;14565;48.626;8.978;2022-09-03T13:48:44;2.72;;;1.90;;
27025;SDS011;14565;48.626;8.978;2022-09-03T13:51:36;2.58;;;1.88;;
27025;SDS011;14565;48.626;8.978;2022-09-03T13:57:00;3.00;;;1.70;;
27025;SDS011;14565;48.626;8.978;2022-09-03T14:02:22;3.42;;;1.85;;
27025;SDS011;14565;48.626;8.978;2022-09-03T14:05:11;3.10;;;2.40;;
27025;SDS011;14565;48.626;8.978;2022-09-03T14:22:00;3.15;;;1.60;;
27025;SDS011;14565;48.626;8.978;2022-09-03T14:27:29;2.17;;;1.40;;
27025;SDS011;14565;48.626;8.978;2022-09-03T14:30:15;5.25;;;1.60;;
27025;SDS011;14565;48.626;8.978;2022-09-03T14:41:49;2.70;;;1.60;;
27025;SDS011;14565;48.626;8.978;2022-09-03T14:46:45;3.38;;;1.50;;
27025;SDS011;14565;48.626;8.978;2022-09-03T14:57:34;3.38;;;1.52;;
27025;SDS011;14565;48.626;8.978;2022-09-03T15:08:52;1.60;;;1.30;;
27025;SDS011;14565;48.626;8.978;2022-09-03T15:11:20;2.65;;;1.25;;
27025;SDS011;14565;48.626;8.978;2022-09-03T15:13:50;3.35;;;1.40;;
27025;SDS011;14565;48.626;8.978;2022-09-03T15:16:24;3.58;;;1.60;;
27025;SDS011;14565;48.626;8.978;2022-09-03T15:18:56;2.45;;;1.38;;
27025;SDS011;14565;48.626;8.978;2022-09-03T15:24:23;1.65;;;1.42;;
27025;SDS011;14565;48.626;8.978;2022-09-03T15:35:34;2.35;;;1.25;;
27025;SDS011;14565;48.626;8.978;2022-09-03T15:38:12;2.70;;;1.67;;
27025;SDS011;14565;48.626;8.978;2022-09-03T15:41:01;2.63;;;1.55;;
27025;SDS011;14565;48.626;8.978;2022-09-03T15:43:33;2.05;;;1.42;;
27025;SDS011;14565;48.626;8.978;2022-09-03T15:45:59;1.52;;;1.23;;
27025;SDS011;14565;48.626;8.978;2022-09-03T15:48:51;2.45;;;1.20;;
27025;SDS011;14565;48.626;8.978;2022-09-03T15:54:14;3.33;;;1.15;;
27025;SDS011;14565;48.626;8.978;2022-09-03T15:59:25;2.25;;;1.40;;
27025;SDS011;14565;48.626;8.978;2022-09-03T16:15:28;2.10;;;1.10;;
27025;SDS011;14565;48.626;8.978;2022-09-03T16:18:05;2.07;;;1.20;;
27025;SDS011;14565;48.626;8.978;2022-09-03T16:20:53;1.70;;;1.10;;
27025;SDS011;14565;48.626;8.978;2022-09-03T16:28:47;2.78;;;1.30;;
27025;SDS011;14565;48.626;8.978;2022-09-03T16:39:24;2.22;;;1.30;;
27025;SDS011;14565;48.626;8.978;2022-09-03T16:56:21;1.60;;;1.20;;
27025;SDS011;14565;48.626;8.978;2022-09-03T17:14:49;1.30;;;1.20;;
27025;SDS011;14565;48.626;8.978;2022-09-03T17:22:49;4.40;;;1.40;;
27025;SDS011;14565;48.626;8.978;2022-09-03T17:37:02;2.20;;;1.70;;
27025;SDS011;14565;48.626;8.978;2022-09-03T17:39:42;5.22;;;1.98;;
27025;SDS011;14565;48.626;8.978;2022-09-03T17:49:45;2.15;;;1.95;;
27025;SDS011;14565;48.626;8.978;2022-09-03T17:54:52;2.42;;;1.83;;
27025;SDS011;14565;48.626;8.978;2022-09-03T17:57:26;2.70;;;2.50;;
27025;SDS011;14565;48.626;8.978;2022-09-03T18:00:00;6.82;;;3.13;;
27025;SDS011;14565;48.626;8.978;2022-09-03T18:05:26;5.28;;;2.88;;
27025;SDS011;14565;48.626;8.978;2022-09-03T18:08:40;2.70;;;2.30;;
27025;SDS011;14565;48.626;8.978;2022-09-03T18:16:20;2.83;;;1.83;;
27025;SDS011;14565;48.626;8.978;2022-09-03T18:18:59;2.10;;;1.80;;
27025;SDS011;14565;48.626;8.978;2022-09-03T18:21:29;2.72;;;2.03;;
27025;SDS011;14565;48.626;8.978;2022-09-03T18:24:32;2.47;;;1.92;;
27025;SDS011;14565;48.626;8.978;2022-09-03T18:31:12;2.47;;;1.92;;
27025;SDS011;14565;48.626;8.978;2022-09-03T18:33:58;3.03;;;1.80;;
27025;SDS011;14565;48.626;8.978;2022-09-03T18:36:42;2.20;;;2.00;;
27025;SDS011;14565;48.626;8.978;2022-09-03T18:39:27;4.45;;;2.03;;
27025;SDS011;14565;48.626;8.978;2022-09-03T18:45:25;5.55;;;2.15;;
27025;SDS011;14565;48.626;8.978;2022-09-03T18:57:42;3.13;;;2.55;;
27025;SDS011;14565;48.626;8.978;2022-09-03T19:00:53;9.52;;;2.70;;
27025;SDS011;14565;48.626;8.978;2022-09-03T19:07:10;3.75;;;2.25;;
27025;SDS011;14565;48.626;8.978;2022-09-03T19:10:02;5.80;;;2.50;;
27025;SDS011;14565;48.626;8.978;2022-09-03T19:12:58;3.80;;;2.70;;
27025;SDS011;14565;48.626;8.978;2022-09-03T19:16:08;5.10;;;2.58;;
27025;SDS011;14565;48.626;8.978;2022-09-03T19:21:54;4.18;;;2.28;;
27025;SDS011;14565;48.626;8.978;2022-09-03T19:24:49;2.95;;;2.60;;
27025;SDS011;14565;48.626;8.978;2022-09-03T19:30:49;2.67;;;2.30;;
27025;SDS011;14565;48.626;8.978;2022-09-03T19:37:17;4.15;;;2.55;;
27025;SDS011;14565;48.626;8.978;2022-09-03T19:43:27;2.70;;;2.10;;
27025;SDS011;14565;48.626;8.978;2022-09-03T19:46:39;2.50;;;2.28;;
27025;SDS011;14565;48.626;8.978;2022-09-03T19:52:34;2.63;;;2.40;;
27025;SDS011;14565;48.626;8.978;2022-09-03T19:55:47;2.72;;;2.05;;
27025;SDS011;14565;48.626;8.978;2022-09-03T19:58:36;2.80;;;2.13;;
27025;SDS011;14565;48.626;8.978;2022-09-03T20:01:24;2.97;;;2.30;;
27025;SDS011;14565;48.626;8.978;2022-09-03T20:04:16;5.55;;;2.42;;
27025;SDS011;14565;48.626;8.978;2022-09-03T20:07:02;3.75;;;2.15;;
27025;SDS011;14565;48.626;8.978;2022-09-03T20:09:49;3.35;;;2.30;;
27025;SDS011;14565;48.626;8.978;2022-09-03T20:12:37;8.32;;;2.20;;
27025;SDS011;14565;48.626;8.978;2022-09-03T20:15:06;3.65;;;2.03;;
27025;SDS011;14565;48.626;8.978;2022-09-03T20:26:30;3.30;;;2.03;;
27025;SDS011;14565;48.626;8.978;2022-09-03T20:37:50;4.63;;;2.38;;
27025;SDS011;14565;48.626;8.978;2022-09-03T20:40:36;6.97;;;2.63;;
27025;SDS011;14565;48.626;8.978;2022-09-03T20:48:33;4.43;;;2.28;;
27025;SDS011;14565;48.626;8.978;2022-09-03T20:51:05;3.42;;;2.05;;
27025;SDS011;14565;48.626;8.978;2022-09-03T20:56:50;3.67;;;2.10;;
27025;SDS011;14565;48.626;8.978;2022-09-03T20:59:36;2.97;;;2.53;;
27025;SDS011;14565;48.626;8.978;2022-09-03T21:15:53;4.18;;;2.03;;
27025;SDS011;14565;48.626;8.978;2022-09-03T21:21:35;2.30;;;2.00;;
27025;SDS011;14565;48.626;8.978;2022-09-03T21:24:41;3.40;;;1.48;;
27025;SDS011;14565;48.626;8.978;2022-09-03T21:27:12;3.60;;;1.52;;
27025;SDS011;14565;48.626;8.978;2022-09-03T21:32:21;2.28;;;1.50;;
27025;SDS011;14565;48.626;8.978;2022-09-03T21:37:32;2.45;;;1.40;;
27025;SDS011;14565;48.626;8.978;2022-09-03T21:40:00;3.00;;;1.75;;
27025;SDS011;14565;48.626;8.978;2022-09-03T21:42:31;2.05;;;1.58;;
27025;SDS011;14565;48.626;8.978;2022-09-03T21:47:37;5.53;;;2.10;;
27025;SDS011;14565;48.626;8.978;2022-09-03T21:55:37;2.40;;;2.00;;
27025;SDS011;14565;48.626;8.978;2022-09-03T22:00:46;5.18;;;3.28;;
27025;SDS011;14565;48.626;8.978;2022-09-03T22:03:15;4.35;;;2.85;;
27025;SDS011;14565;48.626;8.978;2022-09-03T22:06:16;2.60;;;2.40;;
27025;SDS011;14565;48.626;8.978;2022-09-03T22:09:21;3.70;;;2.53;;
27025;SDS011;14565;48.626;8.978;2022-09-03T22:12:11;3.75;;;2.70;;
27025;SDS011;14565;48.626;8.978;2022-09-03T22:15:07;4.05;;;2.47;;
27025;SDS011;14565;48.626;8.978;2022-09-03T22:20:19;2.88;;;2.10;;
27025;SDS011;14565;48.626;8.978;2022-09-03T22:25:24;3.30;;;2.20;;
27025;SDS011;14565;48.626;8.978;2022-09-03T22:29:06;3.22;;;2.53;;
27025;SDS011;14565;48.626;8.978;2022-09-03T22:31:00;2.13;;;1.92;;
27025;SDS011;14565;48.626;8.978;2022-09-03T22:33:54;3.25;;;2.13;;
27025;SDS011;14565;48.626;8.978;2022-09-03T22:39:26;3.67;;;2.25;;
27025;SDS011;14565;48.626;8.978;2022-09-03T22:50:57;3.95;;;2.30;;
27025;SDS011;14565;48.626;8.978;2022-09-03T22:56:15;4.05;;;1.80;;
27025;SDS011;14565;48.626;8.978;2022-09-03T23:01:35;2.75;;;2.13;;
27025;SDS011;14565;48.626;8.978;2022-09-03T23:04:18;5.03;;;2.35;;
27025;SDS011;14565;48.626;8.978;2022-09-03T23:07:01;4.32;;;2.30;;
27025;SDS011;14565;48.626;8.978;2022-09-03T23:09:28;3.80;;;2.05;;
27025;SDS011;14565;48.626;8.978;2022-09-03T23:11:59;5.15;;;2.47;;
27025;SDS011;14565;48.626;8.978;2022-09-03T23:14:35;7.90;;;2.67;;
27025;SDS011;14565;48.626;8.978;2022-09-03T23:17:13;4.53;;;2.72;;
27025;SDS011;14565;48.626;8.978;2022-09-03T23:19:46;2.28;;;2.08;;
27025;SDS011;14565;48.626;8.978;2022-09-03T23:22:22;3.03;;;2.53;;
27025;SDS011;14565;48.626;8.978;2022-09-03T23:28:01;6.72;;;2.90;;
27025;SDS011;14565;48.626;8.978;2022-09-03T23:30:38;5.15;;;3.00;;
27025;SDS011;14565;48.626;8.978;2022-09-03T23:33:05;5.57;;;3.30;;
27025;SDS011;14565;48.626;8.978;2022-09-03T23:35:51;6.18;;;2.75;;
27025;SDS011;14565;48.626;8.978;2022-09-03T23:41:12;5.03;;;3.03;;
27025;SDS011;14565;48.626;8.978;2022-09-03T23:54:46;4.70;;;3.75;;
